Time;durP1;ratioP1;P1;durP2;ratioP2;P2;SDS_P1;SDS_P2;PMS_P1;PMS_P2;Temp;Humidity;BMP_temperature;BMP_pressure;BME280_temperature;BME280_humidity;BME280_pressure;Samples;Min_cycle;Max_cycle;Signal;HPM_P1;HPM_P2
2023/12/03 00:00:43;;;;;;;10.77;4.97;;;-0.20;99.90;;;;;;5016114;28;20042;-59
2023/12/03 00:03:11;;;;;;;10.25;5.05;;;-0.20;99.90;;;;;;5016111;28;20065;-60
2023/12/03 00:05:38;;;;;;;8.15;4.10;;;-0.30;99.90;;;;;;5016469;28;20042;-59
2023/12/03 00:08:04;;;;;;;9.95;4.55;;;-0.30;99.90;;;;;;5015651;28;20432;-59
2023/12/03 00:10:30;;;;;;;7.38;3.40;;;-0.20;99.90;;;;;;5016450;28;20069;-59
2023/12/03 00:12:56;;;;;;;9.05;4.30;;;-0.30;99.90;;;;;;5014564;28;20049;-59
2023/12/03 00:15:22;;;;;;;7.95;3.60;;;-0.40;99.90;;;;;;5016103;28;20757;-60
2023/12/03 00:17:49;;;;;;;10.77;4.10;;;-0.40;99.90;;;;;;5016169;28;20049;-59
2023/12/03 00:20:15;;;;;;;8.77;4.00;;;-0.30;99.90;;;;;;5000281;28;20116;-59
2023/12/03 00:22:41;;;;;;;8.35;3.75;;;-0.40;99.90;;;;;;5019560;28;20041;-58
2023/12/03 00:25:07;;;;;;;8.40;3.95;;;-0.30;99.90;;;;;;5019030;28;20125;-60
2023/12/03 00:27:33;;;;;;;10.15;4.18;;;-0.50;99.90;;;;;;5019694;28;20053;-59
2023/12/03 00:29:58;;;;;;;8.93;3.53;;;-0.40;99.90;;;;;;5018847;28;20053;-59
2023/12/03 00:32:24;;;;;;;8.93;3.53;;;-0.40;99.90;;;;;;5001512;28;20069;-59
2023/12/03 00:34:50;;;;;;;7.78;3.42;;;-0.40;99.90;;;;;;5019379;28;20046;-60
2023/12/03 00:37:15;;;;;;;7.68;3.55;;;-0.40;99.90;;;;;;5019217;28;20052;-59
2023/12/03 00:39:41;;;;;;;8.80;3.83;;;-0.40;99.90;;;;;;5019525;28;20061;-59
2023/12/03 00:42:07;;;;;;;7.63;3.38;;;-0.30;99.90;;;;;;5018852;28;20551;-59
2023/12/03 00:44:33;;;;;;;7.78;3.00;;;-0.20;99.90;;;;;;5019892;28;20496;-59
2023/12/03 00:46:58;;;;;;;6.47;2.97;;;-0.30;99.90;;;;;;5018020;28;20042;-57
2023/12/03 00:49:24;;;;;;;7.47;3.13;;;-0.20;99.90;;;;;;5019621;28;20391;-60
2023/12/03 00:51:50;;;;;;;8.05;2.83;;;-0.30;99.90;;;;;;5018719;28;20390;-59
2023/12/03 00:54:15;;;;;;;6.85;3.17;;;-0.40;99.90;;;;;;5010105;28;20038;-59
2023/12/03 00:56:41;;;;;;;6.13;3.05;;;-0.30;99.90;;;;;;4999377;28;20054;-59
2023/12/03 00:59:07;;;;;;;7.82;3.40;;;-0.30;99.90;;;;;;4999002;28;20043;-60
2023/12/03 01:01:32;;;;;;;7.07;2.83;;;-0.20;99.90;;;;;;4982008;28;20509;-60
2023/12/03 01:03:58;;;;;;;7.43;2.85;;;-0.30;99.90;;;;;;4998744;28;20050;-60
2023/12/03 01:06:23;;;;;;;6.25;2.60;;;-0.40;99.90;;;;;;4999694;28;20069;-58
2023/12/03 01:08:49;;;;;;;6.55;2.70;;;-0.30;99.90;;;;;;4981331;28;20062;-59
2023/12/03 01:11:15;;;;;;;6.15;2.97;;;-0.30;99.90;;;;;;4999424;28;20050;-59
2023/12/03 01:13:41;;;;;;;6.43;2.70;;;-0.40;99.90;;;;;;5001713;28;20050;-59
2023/12/03 01:16:17;;;;;;;6.47;2.63;;;-0.40;99.90;;;;;;5000578;28;20139;-58
2023/12/03 01:18:43;;;;;;;6.93;2.78;;;-0.50;99.90;;;;;;5019232;28;20071;-59
2023/12/03 01:21:09;;;;;;;6.25;2.80;;;-0.50;99.90;;;;;;5017855;28;20581;-58
2023/12/03 01:23:34;;;;;;;5.07;2.33;;;-0.50;99.90;;;;;;5018606;28;20662;-58
2023/12/03 01:26:00;;;;;;;7.88;2.60;;;-0.50;99.90;;;;;;5018213;28;20045;-59
2023/12/03 01:28:26;;;;;;;6.45;2.65;;;-0.50;99.90;;;;;;5018750;28;20099;-59
2023/12/03 01:30:52;;;;;;;5.28;2.30;;;-0.60;99.90;;;;;;5018397;28;20041;-55
2023/12/03 01:33:18;;;;;;;6.25;2.45;;;-0.60;99.90;;;;;;5018405;28;20046;-59
2023/12/03 01:35:43;;;;;;;8.70;2.85;;;-0.50;99.90;;;;;;5018785;28;20080;-59
2023/12/03 01:38:09;;;;;;;6.55;2.22;;;-0.60;99.90;;;;;;5018110;28;20046;-59
2023/12/03 01:40:35;;;;;;;6.00;2.30;;;-0.70;99.90;;;;;;5001015;28;20042;-59
2023/12/03 01:43:01;;;;;;;6.40;2.90;;;-0.60;99.90;;;;;;5018321;28;20106;-59
2023/12/03 01:45:27;;;;;;;7.68;2.75;;;-0.70;99.90;;;;;;5018454;28;20052;-59
2023/12/03 01:47:54;;;;;;;6.75;2.40;;;-0.70;99.90;;;;;;5018257;28;20121;-58
2023/12/03 01:50:19;;;;;;;6.47;2.97;;;-0.70;99.90;;;;;;5018149;28;20077;-58
2023/12/03 01:52:46;;;;;;;7.57;2.75;;;-0.70;99.90;;;;;;5018581;28;20053;-59
2023/12/03 01:55:12;;;;;;;5.43;2.35;;;-0.60;99.90;;;;;;5017894;28;20084;-59
2023/12/03 01:57:38;;;;;;;7.50;2.80;;;-0.70;99.90;;;;;;5018382;28;20042;-59
2023/12/03 02:00:05;;;;;;;6.25;2.58;;;-0.70;99.90;;;;;;5018314;28;20193;-59
2023/12/03 02:02:31;;;;;;;6.28;2.53;;;-0.70;99.90;;;;;;5018292;28;20052;-59
2023/12/03 02:04:57;;;;;;;7.03;2.95;;;-0.70;99.90;;;;;;5018323;28;20588;-59
2023/12/03 02:07:24;;;;;;;7.63;2.67;;;-0.80;99.90;;;;;;5018163;28;20038;-59
2023/12/03 02:09:49;;;;;;;6.25;2.83;;;-0.80;99.90;;;;;;5018258;28;20042;-59
2023/12/03 02:12:15;;;;;;;6.40;2.58;;;-0.80;99.90;;;;;;5017587;28;20099;-60
2023/12/03 02:14:41;;;;;;;7.05;2.63;;;-0.70;99.90;;;;;;5018787;28;20088;-59
2023/12/03 02:17:07;;;;;;;6.28;2.72;;;-0.70;99.90;;;;;;5017413;28;20076;-60
2023/12/03 02:19:32;;;;;;;6.53;2.78;;;-0.80;99.90;;;;;;5000538;28;20113;-60
2023/12/03 02:21:58;;;;;;;6.10;2.83;;;-0.80;99.90;;;;;;5018287;28;20053;-60
2023/12/03 02:24:24;;;;;;;6.80;2.58;;;-0.90;99.90;;;;;;5017912;28;20097;-60
2023/12/03 02:26:49;;;;;;;6.07;2.58;;;-0.80;99.90;;;;;;5018047;28;20050;-60
2023/12/03 02:29:15;;;;;;;5.55;2.33;;;-0.90;99.90;;;;;;5017573;28;20046;-60
2023/12/03 02:31:41;;;;;;;6.32;2.78;;;-0.80;99.90;;;;;;5000719;28;20594;-60
2023/12/03 02:34:08;;;;;;;7.13;3.10;;;-0.80;99.90;;;;;;5017541;28;20422;-61
2023/12/03 02:36:34;;;;;;;7.32;2.67;;;-0.80;99.90;;;;;;5021580;28;20105;-60
2023/12/03 02:39:01;;;;;;;6.30;2.63;;;-0.90;99.90;;;;;;5021473;28;20050;-60
2023/12/03 02:41:26;;;;;;;5.85;2.35;;;-0.90;99.90;;;;;;5021232;28;20037;-59
2023/12/03 02:43:52;;;;;;;6.35;2.88;;;-0.80;99.90;;;;;;5021644;28;20057;-59
2023/12/03 02:46:17;;;;;;;5.82;2.65;;;-0.80;99.90;;;;;;5020943;28;20048;-60
2023/12/03 02:48:43;;;;;;;6.32;2.80;;;-0.80;99.90;;;;;;5021794;28;20042;-60
2023/12/03 02:51:09;;;;;;;6.22;2.70;;;-0.80;99.90;;;;;;5020590;28;20134;-60
2023/12/03 02:53:38;;;;;;;7.60;3.08;;;-0.80;99.90;;;;;;5017925;28;20046;-60
2023/12/03 02:56:05;;;;;;;6.78;2.97;;;-1.00;99.90;;;;;;5001294;28;20431;-60
2023/12/03 02:58:31;;;;;;;6.72;2.75;;;-0.90;99.90;;;;;;5001179;28;20531;-60
2023/12/03 03:00:57;;;;;;;8.35;3.20;;;-1.00;99.90;;;;;;5001885;28;20054;-61
2023/12/03 03:03:23;;;;;;;6.75;2.88;;;-1.00;99.90;;;;;;5001011;28;20053;-60
2023/12/03 03:05:48;;;;;;;7.43;3.38;;;-1.00;99.90;;;;;;5001935;28;20129;-60
2023/12/03 03:08:14;;;;;;;7.57;3.40;;;-1.00;99.90;;;;;;5000516;28;20042;-59
2023/12/03 03:10:40;;;;;;;7.32;3.40;;;-1.00;99.90;;;;;;5001566;28;20102;-60
2023/12/03 03:13:05;;;;;;;6.93;3.00;;;-1.00;99.90;;;;;;5000808;28;20038;-60
2023/12/03 03:15:31;;;;;;;6.93;3.13;;;-1.10;99.90;;;;;;5001314;28;20078;-59
2023/12/03 03:17:56;;;;;;;6.90;3.00;;;-1.00;99.90;;;;;;5001060;28;20050;-59
2023/12/03 03:20:22;;;;;;;6.93;3.13;;;-1.00;99.90;;;;;;5000916;28;20107;-60
2023/12/03 03:22:49;;;;;;;6.85;3.45;;;-1.20;99.90;;;;;;5001578;28;20130;-60
2023/12/03 03:25:16;;;;;;;6.30;2.88;;;-1.10;99.90;;;;;;5000352;28;20031;-59
2023/12/03 03:27:42;;;;;;;7.05;2.92;;;-1.00;99.90;;;;;;5001688;28;20627;-60
2023/12/03 03:30:08;;;;;;;7.10;2.75;;;-1.10;99.90;;;;;;4982565;28;20066;-60
2023/12/03 03:32:34;;;;;;;7.13;2.92;;;-1.10;99.90;;;;;;5001368;28;20083;-59
2023/12/03 03:35:00;;;;;;;6.18;3.10;;;-1.20;99.90;;;;;;5000852;28;20041;-60
2023/12/03 03:37:26;;;;;;;6.65;2.97;;;-1.20;99.90;;;;;;5000960;28;20094;-60
2023/12/03 03:39:51;;;;;;;5.72;2.58;;;-1.20;99.90;;;;;;5000610;28;20054;-61
2023/12/03 03:42:17;;;;;;;6.38;2.97;;;-1.10;99.90;;;;;;4999831;28;20237;-60
2023/12/03 03:44:43;;;;;;;6.45;2.80;;;-1.20;99.90;;;;;;5001448;28;20097;-60
2023/12/03 03:47:11;;;;;;;5.90;2.53;;;-1.20;99.90;;;;;;4998582;28;20058;-60
2023/12/03 03:49:37;;;;;;;6.82;2.65;;;-1.20;99.90;;;;;;5000840;28;20046;-60
2023/12/03 03:52:03;;;;;;;6.00;2.70;;;-1.20;99.90;;;;;;5000249;28;20700;-60
2023/12/03 03:54:29;;;;;;;6.40;2.55;;;-1.20;99.90;;;;;;5011295;28;20061;-59
2023/12/03 03:56:55;;;;;;;6.25;2.80;;;-1.30;99.90;;;;;;5002859;28;20617;-59
2023/12/03 03:59:20;;;;;;;7.03;2.65;;;-1.30;99.90;;;;;;5019649;28;20056;-60
2023/12/03 04:01:46;;;;;;;5.43;2.35;;;-1.20;99.90;;;;;;5020336;28;20102;-59
2023/12/03 04:04:12;;;;;;;5.88;2.53;;;-1.30;99.90;;;;;;5019266;28;20038;-60
2023/12/03 04:06:44;;;;;;;5.93;2.50;;;-1.30;99.90;;;;;;5020195;28;20034;-60
2023/12/03 04:09:10;;;;;;;5.82;2.70;;;-1.30;99.90;;;;;;5019574;28;20120;-60
2023/12/03 04:11:46;;;;;;;5.50;2.40;;;-1.30;99.90;;;;;;5019817;28;20046;-60
2023/12/03 04:14:16;;;;;;;6.25;3.22;;;-1.30;99.90;;;;;;5019748;28;20050;-59
2023/12/03 04:16:43;;;;;;;5.45;2.42;;;-1.30;99.90;;;;;;5019103;28;20056;-60
2023/12/03 04:19:08;;;;;;;6.18;2.60;;;-1.30;99.90;;;;;;5020000;28;20418;-60
2023/12/03 04:21:36;;;;;;;6.05;2.85;;;-1.30;99.90;;;;;;5019025;28;20046;-60
2023/12/03 04:24:02;;;;;;;6.45;2.78;;;-1.30;99.90;;;;;;5002096;28;20085;-60
2023/12/03 04:26:28;;;;;;;6.20;2.70;;;-1.40;99.90;;;;;;5019568;28;20114;-59
2023/12/03 04:28:54;;;;;;;6.25;3.08;;;-1.30;99.90;;;;;;5001765;28;20046;-60
2023/12/03 04:31:27;;;;;;;6.38;2.90;;;-1.30;99.90;;;;;;5019511;28;20048;-59
2023/12/03 04:33:56;;;;;;;7.57;4.00;;;-1.20;99.90;;;;;;5018853;28;20121;-59
2023/12/03 04:36:23;;;;;;;6.55;2.85;;;-1.20;99.90;;;;;;5019523;28;20048;-57
2023/12/03 04:38:52;;;;;;;7.55;3.30;;;-1.20;99.90;;;;;;5019126;28;20045;-60
2023/12/03 04:41:18;;;;;;;6.82;3.60;;;-1.10;99.90;;;;;;5019306;28;20046;-60
2023/12/03 04:43:45;;;;;;;8.13;3.75;;;-1.10;99.90;;;;;;5019395;28;20042;-59
2023/12/03 04:46:11;;;;;;;7.85;3.63;;;-1.20;99.90;;;;;;5018889;28;20108;-59
2023/12/03 04:48:40;;;;;;;7.22;3.95;;;-1.20;99.90;;;;;;5019180;28;20121;-59
2023/12/03 04:51:06;;;;;;;6.90;3.53;;;-1.20;99.90;;;;;;5018308;28;20049;-59
2023/12/03 04:53:31;;;;;;;8.10;4.57;;;-1.10;99.90;;;;;;4998347;28;20042;-60
2023/12/03 04:55:57;;;;;;;8.68;3.90;;;-1.00;99.90;;;;;;4999100;28;20112;-59
2023/12/03 04:58:23;;;;;;;7.75;4.07;;;-1.00;99.90;;;;;;4999252;28;20043;-59
2023/12/03 05:00:49;;;;;;;7.75;4.10;;;-1.10;99.90;;;;;;4999364;28;20053;-59
2023/12/03 05:03:15;;;;;;;8.65;4.72;;;-1.00;99.90;;;;;;4999294;28;20049;-59
2023/12/03 05:05:40;;;;;;;9.82;4.60;;;-0.90;99.90;;;;;;4999350;28;20447;-59
2023/12/03 05:08:06;;;;;;;8.93;5.25;;;-1.00;99.90;;;;;;4998890;28;20053;-59
2023/12/03 05:10:32;;;;;;;9.45;5.15;;;-1.00;99.90;;;;;;4999297;28;20034;-59
2023/12/03 05:12:57;;;;;;;8.90;4.95;;;-0.90;99.90;;;;;;4998750;28;20053;-60
2023/12/03 05:15:23;;;;;;;8.70;5.22;;;-0.90;99.90;;;;;;4999122;28;20057;-59
2023/12/03 05:17:49;;;;;;;12.00;5.20;;;-0.90;99.90;;;;;;4999099;28;20049;-60
2023/12/03 05:20:14;;;;;;;10.98;6.15;;;-1.00;99.90;;;;;;5001748;28;20050;-59
2023/12/03 05:22:40;;;;;;;10.75;5.63;;;-1.00;99.90;;;;;;5018824;28;20065;-60
2023/12/03 05:25:06;;;;;;;8.73;4.68;;;-1.00;99.90;;;;;;5018069;28;20038;-59
2023/12/03 05:27:32;;;;;;;9.35;5.22;;;-1.00;99.90;;;;;;5019116;28;20038;-60
2023/12/03 05:29:58;;;;;;;9.90;5.30;;;-0.90;99.90;;;;;;5018143;28;20038;-60
2023/12/03 05:32:24;;;;;;;9.90;5.25;;;-1.00;99.90;;;;;;5018751;28;20069;-60
2023/12/03 05:34:51;;;;;;;10.93;5.75;;;-1.00;99.90;;;;;;5018543;28;20038;-60
2023/12/03 05:37:17;;;;;;;18.10;6.68;;;-0.80;99.90;;;;;;5018528;28;20054;-60
2023/12/03 05:39:43;;;;;;;13.15;6.35;;;-1.00;99.90;;;;;;5018769;28;20499;-59
2023/12/03 05:42:08;;;;;;;12.52;6.75;;;-1.00;99.90;;;;;;5018037;28;20072;-59
2023/12/03 05:44:34;;;;;;;13.55;6.72;;;-0.90;99.90;;;;;;5018493;28;20053;-59
2023/12/03 05:47:00;;;;;;;19.65;7.90;;;-0.90;99.90;;;;;;5017845;28;20436;-60
2023/12/03 05:49:26;;;;;;;15.82;8.30;;;-0.90;99.90;;;;;;5018484;28;20045;-60
2023/12/03 05:51:52;;;;;;;15.70;8.05;;;-0.90;99.90;;;;;;5018296;28;20058;-60
2023/12/03 05:54:18;;;;;;;20.08;7.57;;;-0.90;99.90;;;;;;5018128;28;20422;-60
2023/12/03 05:56:44;;;;;;;20.83;8.68;;;-0.80;99.90;;;;;;5000927;28;20119;-59
2023/12/03 05:59:10;;;;;;;13.68;6.70;;;-1.00;99.90;;;;;;5018092;28;20042;-59
2023/12/03 06:01:36;;;;;;;13.50;6.90;;;-0.90;99.90;;;;;;5018673;28;20038;-59
2023/12/03 06:04:06;;;;;;;19.98;7.00;;;-0.70;99.90;;;;;;5017942;28;20054;-59
2023/12/03 06:06:32;;;;;;;19.98;8.32;;;-0.60;99.90;;;;;;5018478;28;20045;-60
2023/12/03 06:08:58;;;;;;;17.92;7.93;;;-0.60;99.90;;;;;;5018300;28;20068;-58
2023/12/03 06:11:24;;;;;;;22.85;7.85;;;-0.60;99.90;;;;;;5021378;28;20085;-60
2023/12/03 06:13:50;;;;;;;35.10;8.77;;;-0.60;99.90;;;;;;5022351;28;20061;-59
2023/12/03 06:16:15;;;;;;;40.38;9.55;;;-0.50;99.90;;;;;;5021212;28;20037;-59
2023/12/03 06:18:42;;;;;;;41.03;9.75;;;-0.60;99.90;;;;;;5003331;28;20038;-59
2023/12/03 06:21:08;;;;;;;38.80;11.10;;;-0.40;99.90;;;;;;5001888;28;20042;-60
2023/12/03 06:23:34;;;;;;;26.00;8.98;;;-0.50;99.90;;;;;;5002613;28;20034;-59
2023/12/03 06:26:00;;;;;;;37.92;9.48;;;-0.30;99.90;;;;;;5002106;28;20070;-59
2023/12/03 06:28:25;;;;;;;33.13;10.30;;;-0.40;99.90;;;;;;5002185;28;20038;-59
2023/12/03 06:30:51;;;;;;;45.65;10.98;;;-0.30;99.90;;;;;;5002004;28;20077;-58
2023/12/03 06:33:19;;;;;;;51.65;11.13;;;-0.20;99.90;;;;;;4984561;28;20050;-60
2023/12/03 06:35:45;;;;;;;33.80;11.23;;;-0.20;99.90;;;;;;5002214;28;20084;-59
2023/12/03 06:38:11;;;;;;;48.30;9.77;;;-0.10;99.90;;;;;;5001436;28;20042;-60
2023/12/03 06:40:37;;;;;;;29.80;10.73;;;-0.10;99.90;;;;;;5002024;28;20096;-59
2023/12/03 06:43:02;;;;;;;44.05;11.43;;;-0.10;99.90;;;;;;5001576;28;20046;-60
2023/12/03 06:45:28;;;;;;;38.05;11.40;;;-0.10;99.90;;;;;;5001863;28;20065;-59
2023/12/03 06:47:54;;;;;;;44.55;11.57;;;-0.20;99.90;;;;;;5001898;28;20046;-59
2023/12/03 06:50:19;;;;;;;27.10;10.93;;;-0.10;99.90;;;;;;4999044;28;20085;-59
2023/12/03 06:52:45;;;;;;;27.20;10.45;;;0.00;99.90;;;;;;4998026;28;20113;-59
2023/12/03 06:55:12;;;;;;;32.22;11.88;;;0.70;99.90;;;;;;5013988;28;20053;-59
2023/12/03 06:57:37;;;;;;;39.92;11.60;;;0.10;99.90;;;;;;5017361;28;20042;-59
2023/12/03 07:00:06;;;;;;;53.15;13.50;;;0.00;99.90;;;;;;5017110;28;20344;-59
2023/12/03 07:02:32;;;;;;;32.38;11.63;;;-0.10;99.90;;;;;;5016708;28;20605;-59
2023/12/03 07:04:57;;;;;;;42.47;13.00;;;0.00;99.90;;;;;;4999383;28;20056;-59
2023/12/03 07:07:23;;;;;;;32.70;11.32;;;0.00;99.90;;;;;;5016650;28;20073;-59
2023/12/03 07:09:49;;;;;;;38.63;12.27;;;0.00;99.90;;;;;;5017210;28;20092;-58
2023/12/03 07:12:15;;;;;;;32.10;11.18;;;0.10;99.90;;;;;;5015917;28;20074;-59
2023/12/03 07:14:41;;;;;;;44.05;13.35;;;0.10;99.90;;;;;;5016931;28;20042;-59
2023/12/03 07:17:06;;;;;;;37.40;12.82;;;0.10;99.90;;;;;;5015758;28;20509;-59
2023/12/03 07:19:32;;;;;;;31.42;11.35;;;0.20;99.90;;;;;;5017178;28;20077;-59
2023/12/03 07:21:58;;;;;;;32.85;11.40;;;0.10;99.90;;;;;;5016666;28;20050;-59
2023/12/03 07:24:24;;;;;;;28.65;11.00;;;0.10;99.90;;;;;;5016737;28;20056;-59
2023/12/03 07:26:49;;;;;;;35.42;12.60;;;0.40;99.90;;;;;;5016642;28;20108;-59
2023/12/03 07:29:18;;;;;;;41.00;10.90;;;0.30;99.90;;;;;;5016133;28;20042;-59
2023/12/03 07:31:43;;;;;;;38.08;12.13;;;0.40;99.90;;;;;;5016493;28;20084;-59
2023/12/03 07:34:09;;;;;;;38.67;12.18;;;0.40;99.90;;;;;;5016375;28;20380;-58
2023/12/03 07:36:34;;;;;;;34.60;12.40;;;0.50;99.90;;;;;;5017227;28;20088;-59
2023/12/03 07:39:00;;;;;;;30.15;11.52;;;0.30;99.90;;;;;;5016065;28;20050;-60
2023/12/03 07:41:26;;;;;;;39.83;12.88;;;0.20;99.90;;;;;;5016458;28;20132;-58
2023/12/03 07:43:51;;;;;;;40.42;13.88;;;0.40;99.90;;;;;;4999240;28;20054;-58
2023/12/03 07:46:18;;;;;;;49.25;16.63;;;0.20;99.90;;;;;;5015854;28;20042;-58
2023/12/03 07:48:45;;;;;;;32.70;11.60;;;0.30;99.90;;;;;;5016911;28;20409;-58
2023/12/03 07:51:11;;;;;;;34.15;12.70;;;0.50;99.90;;;;;;5015213;28;20600;-58
2023/12/03 07:53:37;;;;;;;42.38;14.07;;;0.20;99.90;;;;;;5016365;28;20038;-58
2023/12/03 07:56:03;;;;;;;41.75;13.52;;;0.30;99.90;;;;;;5015890;28;20104;-58
2023/12/03 07:58:29;;;;;;;35.88;13.38;;;0.20;99.90;;;;;;5016690;28;20046;-59
2023/12/03 08:00:55;;;;;;;35.28;12.45;;;0.60;99.90;;;;;;5016532;28;20425;-59
2023/12/03 08:03:20;;;;;;;43.92;12.85;;;0.50;99.90;;;;;;5015457;28;20060;-58
2023/12/03 08:05:46;;;;;;;44.47;14.38;;;0.50;99.90;;;;;;5016778;28;20049;-59
2023/12/03 08:08:12;;;;;;;40.97;13.20;;;0.20;99.90;;;;;;5015436;28;20134;-58
2023/12/03 08:10:38;;;;;;;41.97;12.15;;;0.20;99.90;;;;;;5006436;28;20053;-59
2023/12/03 08:13:03;;;;;;;36.78;13.13;;;0.40;99.90;;;;;;5005243;28;20149;-59
2023/12/03 08:15:29;;;;;;;38.80;13.15;;;0.50;99.90;;;;;;5004771;28;20045;-58
2023/12/03 08:17:55;;;;;;;32.45;11.98;;;0.30;99.90;;;;;;5004784;28;20044;-59
2023/12/03 08:20:20;;;;;;;28.05;10.07;;;0.20;99.90;;;;;;5000200;28;20590;-59
2023/12/03 08:22:46;;;;;;;29.05;9.23;;;0.20;99.90;;;;;;4996666;28;20117;-59
2023/12/03 08:25:12;;;;;;;34.25;9.98;;;0.50;99.90;;;;;;4978029;28;20508;-58
2023/12/03 08:27:37;;;;;;;33.63;10.23;;;0.10;99.90;;;;;;4996224;28;20066;-59
2023/12/03 08:30:03;;;;;;;31.80;10.18;;;0.50;99.90;;;;;;4995853;28;20138;-58
2023/12/03 08:32:29;;;;;;;43.03;12.02;;;0.20;99.90;;;;;;4995278;28;20082;-58
2023/12/03 08:34:55;;;;;;;33.45;8.93;;;0.40;99.90;;;;;;4996417;28;20100;-58
2023/12/03 08:37:20;;;;;;;31.73;10.38;;;0.50;99.90;;;;;;4979175;28;21027;-58
2023/12/03 08:39:46;;;;;;;39.63;10.13;;;0.50;99.90;;;;;;4996333;28;20049;-59
2023/12/03 08:42:12;;;;;;;28.10;9.25;;;0.40;99.90;;;;;;4996051;28;20061;-58
2023/12/03 08:44:37;;;;;;;34.35;9.82;;;0.50;99.90;;;;;;4996847;28;20038;-59
2023/12/03 08:47:03;;;;;;;36.88;11.13;;;0.40;99.90;;;;;;4996107;28;20529;-59
2023/12/03 08:49:29;;;;;;;33.97;10.80;;;0.30;99.90;;;;;;4996575;28;20053;-59
2023/12/03 08:51:55;;;;;;;39.22;11.70;;;0.50;99.90;;;;;;4977801;28;20060;-58
2023/12/03 08:54:21;;;;;;;37.50;11.52;;;0.40;99.90;;;;;;5003472;28;20160;-58
2023/12/03 08:56:46;;;;;;;35.15;12.30;;;0.40;99.90;;;;;;5003529;28;20112;-58
2023/12/03 08:59:12;;;;;;;36.53;12.20;;;0.60;99.90;;;;;;4999577;28;20057;-59
2023/12/03 09:01:40;;;;;;;43.53;13.55;;;0.60;99.90;;;;;;4996235;28;20065;-59
2023/12/03 09:04:06;;;;;;;46.72;15.43;;;0.60;99.90;;;;;;4994590;28;20046;-59
2023/12/03 09:06:32;;;;;;;43.22;11.95;;;0.60;99.90;;;;;;4995969;28;20073;-58
2023/12/03 09:08:57;;;;;;;35.97;11.73;;;0.60;99.90;;;;;;4995107;28;20054;-59
2023/12/03 09:11:23;;;;;;;40.88;12.48;;;0.60;99.90;;;;;;4996651;28;20085;-59
2023/12/03 09:13:49;;;;;;;40.20;11.88;;;0.60;99.90;;;;;;5000864;28;20072;-59
2023/12/03 09:16:15;;;;;;;39.20;13.77;;;0.80;99.90;;;;;;5017190;28;20101;-60
2023/12/03 09:18:40;;;;;;;40.70;13.55;;;0.80;99.90;;;;;;5018350;28;20045;-60
2023/12/03 09:21:13;;;;;;;47.13;15.35;;;0.70;99.90;;;;;;5018498;28;20072;-60
2023/12/03 09:23:39;;;;;;;44.40;14.25;;;0.90;99.90;;;;;;5018653;28;20142;-60
2023/12/03 09:26:05;;;;;;;42.13;14.07;;;0.90;99.90;;;;;;5018871;28;20046;-60
2023/12/03 09:28:32;;;;;;;48.55;15.02;;;0.90;99.90;;;;;;5018492;28;20098;-59
2023/12/03 09:30:59;;;;;;;40.13;13.43;;;0.80;99.90;;;;;;5019079;28;20045;-60
2023/12/03 09:33:28;;;;;;;46.63;14.38;;;1.00;99.90;;;;;;5018309;28;20072;-60
2023/12/03 09:35:57;;;;;;;43.22;15.48;;;0.80;99.90;;;;;;5019036;28;20108;-60
2023/12/03 09:38:23;;;;;;;52.30;16.13;;;1.10;99.90;;;;;;5018233;28;20512;-60
2023/12/03 09:40:52;;;;;;;49.40;17.08;;;0.90;99.90;;;;;;5018833;28;20034;-59
2023/12/03 09:43:19;;;;;;;46.35;16.50;;;1.10;99.90;;;;;;5018995;28;20056;-59
2023/12/03 09:45:49;;;;;;;44.92;15.90;;;0.90;99.90;;;;;;5022316;28;20120;-59
2023/12/03 09:48:19;;;;;;;51.67;18.50;;;1.20;99.90;;;;;;5005425;28;20037;-60
2023/12/03 09:50:45;;;;;;;48.78;17.88;;;1.20;99.90;;;;;;5021517;28;20101;-60
2023/12/03 09:53:14;;;;;;;50.92;19.17;;;1.10;99.90;;;;;;5023013;28;20127;-61
2023/12/03 09:55:41;;;;;;;55.10;20.13;;;1.30;99.90;;;;;;5022143;28;20046;-60
2023/12/03 09:58:12;;;;;;;50.42;19.98;;;1.30;99.90;;;;;;5022338;28;20494;-61
2023/12/03 10:00:39;;;;;;;56.23;21.03;;;1.10;99.90;;;;;;5022636;28;20042;-60
2023/12/03 10:03:05;;;;;;;55.10;20.98;;;1.30;99.90;;;;;;5021736;28;20284;-60
2023/12/03 10:05:32;;;;;;;52.75;21.33;;;1.20;99.90;;;;;;5022493;28;20509;-60
2023/12/03 10:07:58;;;;;;;53.42;20.65;;;1.20;99.90;;;;;;5021678;28;20502;-60
2023/12/03 10:10:29;;;;;;;49.65;21.10;;;1.40;99.90;;;;;;5022126;28;20049;-60
2023/12/03 10:12:56;;;;;;;52.40;22.17;;;1.40;99.90;;;;;;5022107;28;20046;-60
2023/12/03 10:15:22;;;;;;;50.00;20.27;;;1.40;99.90;;;;;;5021670;28;20077;-60
2023/12/03 10:17:49;;;;;;;56.65;22.17;;;1.20;99.90;;;;;;5022218;28;20046;-60
2023/12/03 10:20:20;;;;;;;50.78;21.88;;;1.30;99.90;;;;;;5021322;28;20100;-60
2023/12/03 10:22:46;;;;;;;46.05;20.73;;;1.20;99.90;;;;;;5021969;28;20058;-59
2023/12/03 10:25:24;;;;;;;44.90;19.52;;;1.30;99.90;;;;;;5021209;28;20045;-59
2023/12/03 10:27:53;;;;;;;52.47;20.45;;;1.30;99.90;;;;;;5022185;28;20049;-60
2023/12/03 10:30:18;;;;;;;47.55;21.30;;;1.40;99.90;;;;;;5021544;28;20042;-60
2023/12/03 10:32:45;;;;;;;49.38;21.15;;;1.20;99.90;;;;;;5021718;28;20076;-60
2023/12/03 10:35:11;;;;;;;44.55;19.27;;;1.30;99.90;;;;;;5004207;28;20045;-59
2023/12/03 10:37:37;;;;;;;48.85;20.63;;;1.40;99.90;;;;;;5021067;28;20053;-60
2023/12/03 10:40:04;;;;;;;51.50;22.95;;;1.40;99.90;;;;;;5021646;28;20042;-59
2023/12/03 10:42:33;;;;;;;48.55;21.40;;;1.40;99.90;;;;;;5020973;28;20569;-60
2023/12/03 10:45:15;;;;;;;53.95;23.27;;;1.50;99.90;;;;;;5021095;28;20038;-59
2023/12/03 10:47:42;;;;;;;44.80;20.55;;;1.40;99.90;;;;;;5021138;28;20541;-60
2023/12/03 10:50:10;;;;;;;47.53;21.90;;;1.50;99.90;;;;;;5021174;28;21271;-60
2023/12/03 10:52:38;;;;;;;46.30;21.48;;;1.70;99.90;;;;;;5021422;28;20064;-59
2023/12/03 10:55:05;;;;;;;45.10;20.23;;;1.60;99.90;;;;;;5004427;28;20110;-60
2023/12/03 10:57:32;;;;;;;44.40;19.73;;;1.70;99.90;;;;;;5001636;28;20042;-59
2023/12/03 11:00:10;;;;;;;46.47;20.15;;;1.60;99.90;;;;;;5001489;28;20046;-60
2023/12/03 11:02:43;;;;;;;41.47;18.83;;;1.80;99.90;;;;;;5001451;28;20045;-60
2023/12/03 11:05:18;;;;;;;43.63;19.73;;;1.70;99.90;;;;;;5001280;28;20105;-60
2023/12/03 11:07:44;;;;;;;44.40;19.35;;;1.70;99.90;;;;;;5000708;28;20046;-60
2023/12/03 11:10:12;;;;;;;43.63;21.23;;;1.70;99.90;;;;;;5001603;28;20038;-59
2023/12/03 11:12:38;;;;;;;45.58;20.40;;;1.90;99.90;;;;;;5000958;28;20053;-60
2023/12/03 11:15:05;;;;;;;45.47;21.70;;;1.80;99.90;;;;;;5001136;28;20062;-60
2023/12/03 11:17:41;;;;;;;45.13;21.15;;;2.00;99.90;;;;;;5001173;28;20328;-59
2023/12/03 11:20:12;;;;;;;46.50;21.10;;;2.00;99.90;;;;;;5000814;28;20050;-60
2023/12/03 11:23:16;;;;;;;47.58;21.35;;;2.00;99.90;;;;;;5001421;28;20495;-59
2023/12/03 11:26:15;;;;;;;47.85;21.55;;;2.00;99.90;;;;;;5000872;28;20065;-62
2023/12/03 11:28:55;;;;;;;43.88;21.25;;;2.00;99.90;;;;;;4978829;28;20081;-60
2023/12/03 11:31:23;;;;;;;43.75;20.52;;;2.00;99.90;;;;;;5000912;28;20061;-59
2023/12/03 11:34:10;;;;;;;44.90;20.13;;;2.10;99.90;;;;;;5000724;28;20038;-59
2023/12/03 11:36:52;;;;;;;44.00;21.15;;;2.00;99.90;;;;;;5000808;28;20085;-60
2023/12/03 11:39:19;;;;;;;45.97;21.02;;;1.90;99.90;;;;;;5001071;28;20078;-60
2023/12/03 11:41:45;;;;;;;40.72;20.83;;;1.90;99.90;;;;;;5000443;28;20050;-60
2023/12/03 11:44:22;;;;;;;40.97;19.88;;;1.90;99.90;;;;;;5000962;28;20058;-60
2023/12/03 11:47:03;;;;;;;47.80;23.13;;;1.90;99.90;;;;;;5000118;28;20057;-59
2023/12/03 11:49:30;;;;;;;41.15;19.83;;;1.80;99.90;;;;;;5000424;28;20135;-60
2023/12/03 11:51:56;;;;;;;45.30;20.60;;;1.90;99.90;;;;;;5000285;28;20141;-60
2023/12/03 11:54:30;;;;;;;43.60;21.73;;;1.90;99.90;;;;;;5010363;28;20056;-60
2023/12/03 11:56:56;;;;;;;40.13;19.73;;;1.60;99.90;;;;;;5020425;28;20084;-60
2023/12/03 11:59:22;;;;;;;36.60;18.23;;;1.70;99.90;;;;;;5019401;28;20038;-60
2023/12/03 12:01:47;;;;;;;38.65;19.10;;;1.70;99.90;;;;;;5020131;28;20042;-60
2023/12/03 12:04:20;;;;;;;39.33;19.02;;;1.70;99.90;;;;;;5019942;28;20045;-60
2023/12/03 12:06:45;;;;;;;36.22;19.02;;;1.70;99.90;;;;;;5019457;28;20057;-60
2023/12/03 12:09:12;;;;;;;37.03;17.35;;;1.80;99.90;;;;;;5019659;28;20409;-61
2023/12/03 12:11:37;;;;;;;34.40;16.85;;;1.80;99.90;;;;;;5019182;28;20050;-61
2023/12/03 12:14:03;;;;;;;32.03;16.67;;;1.70;99.90;;;;;;5020139;28;20034;-61
2023/12/03 12:16:29;;;;;;;33.10;15.85;;;1.60;99.90;;;;;;5018503;28;20061;-61
2023/12/03 12:18:55;;;;;;;34.13;17.38;;;1.70;99.90;;;;;;5020096;28;20510;-60
2023/12/03 12:21:21;;;;;;;35.33;17.98;;;1.70;99.90;;;;;;5019348;28;20060;-60
2023/12/03 12:23:47;;;;;;;32.80;17.67;;;1.60;99.90;;;;;;5019276;28;20046;-60
2023/12/03 12:26:13;;;;;;;36.50;17.48;;;1.70;99.90;;;;;;5019873;28;20042;-60
2023/12/03 12:28:45;;;;;;;33.28;17.70;;;1.80;99.90;;;;;;5089342;28;20550;-45
2023/12/03 12:31:11;;;;;;;32.70;16.60;;;1.70;99.90;;;;;;5089437;28;20048;-47
2023/12/03 12:33:37;;;;;;;39.80;18.35;;;1.80;99.90;;;;;;5088937;28;20127;-47
2023/12/03 12:36:03;;;;;;;33.10;18.20;;;1.70;99.90;;;;;;5089507;28;20123;-45
2023/12/03 12:38:40;;;;;;;33.58;15.48;;;1.70;99.90;;;;;;5089653;28;20060;-45